createdAt,value
2023-01-09T00:00:45.879Z,98159.00
2023-01-09T00:01:50.364Z,98156.50
2023-01-09T00:02:52.414Z,98161.13
2023-01-09T00:03:54.539Z,98153.06
2023-01-09T00:04:56.080Z,98156.38
2023-01-09T00:05:58.550Z,98155.66
2023-01-09T00:07:01.391Z,98155.59
2023-01-09T00:08:03.553Z,98157.38
2023-01-09T00:09:05.550Z,98156.28
2023-01-09T00:10:08.361Z,98161.13
2023-01-09T00:11:10.267Z,98156.19
2023-01-09T00:12:12.530Z,98156.75
2023-01-09T00:13:14.950Z,98151.41
2023-01-09T00:14:18.283Z,98145.81
2023-01-09T00:15:20.315Z,98144.75
2023-01-09T00:16:22.496Z,98145.19
2023-01-09T00:17:25.250Z,98151.34
2023-01-09T00:18:26.887Z,98152.31
2023-01-09T00:19:28.576Z,98156.34
2023-01-09T00:20:30.550Z,98152.91
2023-01-09T00:21:32.390Z,98148.63
2023-01-09T00:22:34.660Z,98134.53
2023-01-09T00:23:37.553Z,98124.91
2023-01-09T00:24:40.377Z,98130.13
2023-01-09T00:25:43.272Z,98130.13
2023-01-09T00:26:45.055Z,98128.72
2023-01-09T00:27:48.584Z,98140.59
2023-01-09T00:28:51.563Z,98144.84
2023-01-09T00:29:53.111Z,98146.06
2023-01-09T00:30:59.417Z,98142.78
2023-01-09T00:32:01.413Z,98135.44
2023-01-09T00:33:03.227Z,98134.88
2023-01-09T00:34:07.950Z,98142.44
2023-01-09T00:35:14.979Z,98140.66
2023-01-09T00:36:17.000Z,98142.88
2023-01-09T00:37:18.594Z,98151.28
2023-01-09T00:38:21.110Z,98148.41
2023-01-09T00:39:23.606Z,98155.19
2023-01-09T00:40:25.203Z,98147.25
2023-01-09T00:41:41.288Z,98144.84
2023-01-09T00:42:47.235Z,98143.34
2023-01-09T00:43:53.614Z,98137.88
2023-01-09T00:45:01.851Z,98134.06
2023-01-09T00:46:07.809Z,98144.84
2023-01-09T00:47:14.564Z,98143.34
2023-01-09T00:48:21.347Z,98135.44
2023-01-09T00:49:23.608Z,98135.56
2023-01-09T00:50:30.485Z,98133.53
2023-01-09T00:51:32.042Z,98133.16
2023-01-09T00:52:36.523Z,98130.53
2023-01-09T00:53:41.067Z,98129.34
2023-01-09T00:54:43.945Z,98122.66
2023-01-09T00:55:46.745Z,98111.44
2023-01-09T00:56:49.677Z,98117.34
2023-01-09T00:57:51.447Z,98110.59
2023-01-09T00:58:53.793Z,98121.16
2023-01-09T00:59:55.411Z,98122.81
2023-01-09T01:00:57.334Z,98126.94
2023-01-09T01:02:00.527Z,98123.00
2023-01-09T01:03:03.676Z,98115.06
2023-01-09T01:04:06.439Z,98110.28
2023-01-09T01:05:09.428Z,98121.28
2023-01-09T01:06:11.230Z,98116.25
2023-01-09T01:07:13.528Z,98114.78
2023-01-09T01:08:18.040Z,98115.94
2023-01-09T01:09:19.891Z,98114.72
2023-01-09T01:10:26.687Z,98111.13
2023-01-09T01:11:28.290Z,98120.88
2023-01-09T01:12:31.188Z,98104.16
2023-01-09T01:13:33.638Z,98108.16
2023-01-09T01:14:38.587Z,98112.97
2023-01-09T01:15:43.661Z,98117.09
2023-01-09T01:16:46.012Z,98125.88
2023-01-09T01:17:48.663Z,98126.81
2023-01-09T01:18:51.479Z,98129.69
2023-01-09T01:19:52.995Z,98131.72
2023-01-09T01:20:55.649Z,98135.66
2023-01-09T01:21:57.676Z,98125.94
2023-01-09T01:22:59.365Z,98133.78
2023-01-09T01:24:01.173Z,98135.81
2023-01-09T01:25:05.366Z,98142.66
2023-01-09T01:26:13.496Z,98141.50
2023-01-09T01:27:15.047Z,98144.50
2023-01-09T01:28:17.598Z,98137.31
2023-01-09T01:29:20.291Z,98141.03
2023-01-09T01:30:22.367Z,98135.06
2023-01-09T01:31:24.611Z,98136.34
2023-01-09T01:32:27.356Z,98141.03
2023-01-09T01:33:30.321Z,98130.31
2023-01-09T01:34:33.100Z,98138.41
2023-01-09T01:35:34.876Z,98129.63
2023-01-09T01:36:37.319Z,98129.75
2023-01-09T01:37:40.214Z,98130.28
2023-01-09T01:38:42.120Z,98124.22
2023-01-09T01:39:43.677Z,98121.59
2023-01-09T01:40:45.498Z,98129.69
2023-01-09T01:41:48.397Z,98124.59
2023-01-09T01:42:53.680Z,98128.47
2023-01-09T01:44:00.636Z,98129.84
2023-01-09T01:45:25.183Z,98127.66
2023-01-09T01:46:28.027Z,98130.50
2023-01-09T01:47:58.682Z,98116.50
2023-01-09T01:49:16.776Z,98119.25
2023-01-09T01:50:27.361Z,98118.56
2023-01-09T01:51:33.698Z,98119.25
2023-01-09T01:52:38.397Z,98114.63
2023-01-09T01:53:48.166Z,98110.69
2023-01-09T01:54:51.000Z,98110.16
2023-01-09T01:56:07.143Z,98103.72
2023-01-09T01:57:09.967Z,98103.59
2023-01-09T01:58:16.200Z,98097.31
2023-01-09T01:59:25.716Z,98097.75
2023-01-09T02:00:35.218Z,98106.09
2023-01-09T02:01:41.558Z,98099.06
2023-01-09T02:02:43.756Z,98109.97
2023-01-09T02:03:46.959Z,98101.19
2023-01-09T02:04:53.328Z,98096.28
2023-01-09T02:05:56.161Z,98097.25
2023-01-09T02:07:00.694Z,98105.31
2023-01-09T02:08:02.212Z,98099.69
2023-01-09T02:09:05.975Z,98088.19
2023-01-09T02:10:08.728Z,98088.75
2023-01-09T02:11:10.279Z,98080.94
2023-01-09T02:12:41.281Z,98066.78
2023-01-09T02:13:43.311Z,98058.53
2023-01-09T02:14:47.911Z,98060.75
2023-01-09T02:16:23.762Z,98066.75
2023-01-09T02:17:40.868Z,98062.22
2023-01-09T02:18:48.724Z,98051.47
2023-01-09T02:20:31.730Z,98047.09
2023-01-09T02:21:52.536Z,98047.38
2023-01-09T02:23:15.116Z,98052.44
2023-01-09T02:24:31.407Z,98047.28
2023-01-09T02:25:55.783Z,98053.34
2023-01-09T02:27:00.333Z,98049.78
2023-01-09T02:28:11.442Z,98046.91
2023-01-09T02:29:43.739Z,98044.44
2023-01-09T02:31:31.655Z,98043.22
2023-01-09T02:32:43.739Z,98046.47
2023-01-09T02:34:14.355Z,98034.94
2023-01-09T02:35:38.191Z,98038.97
2023-01-09T02:36:54.833Z,98039.38
2023-01-09T02:38:07.119Z,98032.13
2023-01-09T02:39:11.661Z,98031.28
2023-01-09T02:40:22.826Z,98029.25
2023-01-09T02:41:30.623Z,98029.13
2023-01-09T02:42:35.155Z,98032.72
2023-01-09T02:43:39.314Z,98023.34
2023-01-09T02:44:40.953Z,98032.41
2023-01-09T02:45:43.680Z,98029.66
2023-01-09T02:46:46.432Z,98016.44
2023-01-09T02:47:48.633Z,98022.75
2023-01-09T02:48:54.095Z,98023.56
2023-01-09T02:50:03.590Z,98022.34
2023-01-09T02:51:14.715Z,98021.13
2023-01-09T02:52:30.806Z,98021.56
2023-01-09T02:53:53.767Z,98014.44
2023-01-09T02:55:13.766Z,98013.47
2023-01-09T02:56:33.770Z,98014.47
2023-01-09T02:57:54.785Z,98011.34
2023-01-09T02:59:26.158Z,98010.53
2023-01-09T03:00:57.212Z,98003.28
2023-01-09T03:02:13.779Z,98012.34
2023-01-09T03:03:41.413Z,98008.78
2023-01-09T03:05:12.208Z,98007.13
2023-01-09T03:06:28.073Z,97999.28
2023-01-09T03:08:04.427Z,98006.03
2023-01-09T03:09:15.096Z,97996.56
2023-01-09T03:10:26.363Z,97993.81
2023-01-09T03:11:35.246Z,97987.50
2023-01-09T03:12:38.718Z,97987.63
2023-01-09T03:14:05.413Z,97986.69
2023-01-09T03:15:10.931Z,97979.66
2023-01-09T03:16:19.126Z,97986.94
2023-01-09T03:17:38.212Z,97984.19
2023-01-09T03:18:41.152Z,97977.97
2023-01-09T03:19:45.614Z,97976.31
2023-01-09T03:20:48.810Z,97973.13
2023-01-09T03:21:51.335Z,97970.41
2023-01-09T03:22:57.754Z,97963.13
2023-01-09T03:24:01.637Z,97966.03
2023-01-09T03:25:03.334Z,97953.94
2023-01-09T03:26:06.156Z,97960.81
2023-01-09T03:27:09.041Z,97953.78
2023-01-09T03:28:26.645Z,97955.03
2023-01-09T03:29:29.550Z,97952.41
2023-01-09T03:30:33.616Z,97948.72
2023-01-09T03:31:35.568Z,97951.06
2023-01-09T03:32:38.301Z,97945.97
2023-01-09T03:33:40.836Z,97954.63
2023-01-09T03:34:42.382Z,97944.19
2023-01-09T03:35:44.410Z,97945.03
2023-01-09T03:36:46.460Z,97936.63
2023-01-09T03:37:48.829Z,97933.34
2023-01-09T03:38:50.603Z,97933.59
2023-01-09T03:39:53.267Z,97938.81
2023-01-09T03:40:56.213Z,97929.88
2023-01-09T03:41:57.821Z,97933.19
2023-01-09T03:43:00.455Z,97930.69
2023-01-09T03:44:02.085Z,97926.31
2023-01-09T03:45:04.651Z,97923.81
2023-01-09T03:46:07.515Z,97919.00
2023-01-09T03:47:10.320Z,97918.19
2023-01-09T03:48:13.193Z,97920.25
2023-01-09T03:49:15.233Z,97912.41
2023-01-09T03:50:16.959Z,97911.31
2023-01-09T03:51:18.497Z,97912.13
2023-01-09T03:52:21.256Z,97913.78
2023-01-09T03:53:25.309Z,97904.59
2023-01-09T03:54:27.127Z,97897.56
2023-01-09T03:55:28.857Z,97900.16
2023-01-09T03:56:31.216Z,97897.63
2023-01-09T03:57:33.114Z,97899.44
2023-01-09T03:58:35.344Z,97897.22
2023-01-09T03:59:36.909Z,97895.13
2023-01-09T04:00:38.562Z,97891.00
2023-01-09T04:01:40.451Z,97888.66
2023-01-09T04:02:43.319Z,97894.31
2023-01-09T04:03:46.418Z,97891.28
2023-01-09T04:04:48.859Z,97893.09
2023-01-09T04:05:50.502Z,97885.94
2023-01-09T04:06:52.630Z,97892.13
2023-01-09T04:07:54.592Z,97887.75
2023-01-09T04:08:56.288Z,97886.91
2023-01-09T04:09:58.125Z,97886.50
2023-01-09T04:10:59.910Z,97883.06
2023-01-09T04:12:01.701Z,97879.50
2023-01-09T04:13:03.872Z,97882.56
2023-01-09T04:14:06.817Z,97882.28
2023-01-09T04:15:08.869Z,97883.38
2023-01-09T04:16:11.026Z,97876.09
2023-01-09T04:17:13.081Z,97875.16
2023-01-09T04:18:15.392Z,97871.03
2023-01-09T04:19:17.921Z,97870.06
2023-01-09T04:20:20.590Z,97866.50
2023-01-09T04:21:23.387Z,97862.09
2023-01-09T04:22:26.535Z,97860.47
2023-01-09T04:23:28.888Z,97859.50
2023-01-09T04:24:30.633Z,97857.84
2023-01-09T04:25:33.574Z,97861.13
2023-01-09T04:26:36.220Z,97851.81
2023-01-09T04:27:38.891Z,97860.19
2023-01-09T04:28:40.536Z,97851.28
2023-01-09T04:29:43.185Z,97850.19
2023-01-09T04:30:45.556Z,97851.72
2023-01-09T04:31:47.508Z,97842.63
2023-01-09T04:32:50.377Z,97842.22
2023-01-09T04:33:53.274Z,97841.13
2023-01-09T04:34:55.862Z,97834.94
2023-01-09T04:35:57.415Z,97842.53
2023-01-09T04:37:00.194Z,97841.69
2023-01-09T04:38:01.732Z,97844.41
2023-01-09T04:39:03.919Z,97844.56
2023-01-09T04:40:07.195Z,97841.13
2023-01-09T04:41:08.910Z,97834.13
2023-01-09T04:42:11.290Z,97835.91
2023-01-09T04:43:13.913Z,97833.44
2023-01-09T04:44:21.424Z,97838.78
2023-01-09T04:45:23.227Z,97834.09
2023-01-09T04:46:25.240Z,97839.31
2023-01-09T04:47:27.334Z,97836.59
2023-01-09T04:48:28.920Z,97834.81
2023-01-09T04:49:31.437Z,97844.41
2023-01-09T04:50:33.904Z,97843.16
2023-01-09T04:51:35.525Z,97833.97
2023-01-09T04:52:39.019Z,97833.97
2023-01-09T04:53:41.247Z,97838.91
2023-01-09T04:54:43.924Z,97830.28
2023-01-09T04:55:46.836Z,97827.09
2023-01-09T04:56:48.938Z,97824.38
2023-01-09T04:57:51.093Z,97831.09
2023-01-09T04:58:53.938Z,97828.63
2023-01-09T04:59:56.801Z,97829.03
2023-01-09T05:00:59.016Z,97824.50
2023-01-09T05:02:01.139Z,97828.91
2023-01-09T05:03:03.431Z,97823.69
2023-01-09T05:04:05.927Z,97827.13
2023-01-09T05:05:11.393Z,97825.34
2023-01-09T05:06:13.430Z,97822.59
2023-01-09T05:07:15.343Z,97827.81
2023-01-09T05:08:17.045Z,97826.03
2023-01-09T05:09:18.954Z,97825.63
2023-01-09T05:10:20.637Z,97822.63
2023-01-09T05:11:23.534Z,97819.16
2023-01-09T05:12:26.015Z,97820.97
2023-01-09T05:13:27.612Z,97812.31
2023-01-09T05:14:30.508Z,97812.97
2023-01-09T05:15:32.202Z,97812.84
2023-01-09T05:16:33.981Z,97816.03
2023-01-09T05:17:35.817Z,97814.22
2023-01-09T05:18:38.049Z,97809.69
2023-01-09T05:19:39.908Z,97816.56
2023-01-09T05:20:41.790Z,97811.22
2023-01-09T05:21:43.975Z,97806.94
2023-01-09T05:22:46.895Z,97813.81
2023-01-09T05:23:48.445Z,97815.06
2023-01-09T05:24:50.725Z,97809.69
2023-01-09T05:25:52.957Z,97813.00
2023-01-09T05:26:55.069Z,97813.13
2023-01-09T05:27:56.755Z,97809.56
2023-01-09T05:28:58.301Z,97810.81
2023-01-09T05:30:00.081Z,97814.25
2023-01-09T05:31:01.622Z,97806.41
2023-01-09T05:32:03.312Z,97809.97
2023-01-09T05:33:05.709Z,97805.44
2023-01-09T05:34:07.996Z,97808.31
2023-01-09T05:35:09.798Z,97805.59
2023-01-09T05:36:11.810Z,97803.81
2023-01-09T05:37:13.732Z,97806.41
2023-01-09T05:38:16.213Z,97808.88
2023-01-09T05:39:17.995Z,97811.91
2023-01-09T05:40:23.052Z,97808.84
2023-01-09T05:41:25.430Z,97805.03
2023-01-09T05:42:28.176Z,97805.84
2023-01-09T05:43:30.525Z,97811.63
2023-01-09T05:44:32.384Z,97807.22
2023-01-09T05:45:34.408Z,97803.69
2023-01-09T05:46:36.511Z,97797.63
2023-01-09T05:47:39.006Z,97800.91
2023-01-09T05:48:40.619Z,97808.63
2023-01-09T05:49:42.968Z,97801.63
2023-01-09T05:50:44.677Z,97802.44
2023-01-09T05:51:47.343Z,97795.69
2023-01-09T05:52:49.002Z,97804.22
2023-01-09T05:53:50.570Z,97802.56
2023-01-09T05:54:52.640Z,97801.63
2023-01-09T05:55:55.593Z,97801.06
2023-01-09T05:56:58.236Z,97796.78
2023-01-09T05:57:59.837Z,97802.13
2023-01-09T05:59:01.387Z,97795.94
2023-01-09T06:00:05.478Z,97792.94
2023-01-09T06:01:09.063Z,97791.28
2023-01-09T06:02:11.492Z,97789.09
2023-01-09T06:03:14.097Z,97793.91
2023-01-09T06:04:16.931Z,97788.28
2023-01-09T06:05:19.016Z,97793.91
2023-01-09T06:06:21.016Z,97793.78
2023-01-09T06:07:23.775Z,97783.88
2023-01-09T06:08:25.309Z,97781.97
2023-01-09T06:09:28.162Z,97783.19
2023-01-09T06:10:29.839Z,97786.75
2023-01-09T06:11:31.853Z,97782.22
2023-01-09T06:12:33.477Z,97779.50
2023-01-09T06:13:35.100Z,97772.47
2023-01-09T06:14:37.553Z,97771.50
2023-01-09T06:15:40.489Z,97772.19
2023-01-09T06:16:43.049Z,97772.19
2023-01-09T06:17:44.649Z,97782.38
2023-01-09T06:18:46.341Z,97778.25
2023-01-09T06:19:47.998Z,97778.38
2023-01-09T06:20:49.663Z,97774.00
2023-01-09T06:21:51.866Z,97778.53
2023-01-09T06:22:53.936Z,97779.50
2023-01-09T06:23:56.267Z,97777.28
2023-01-09T06:24:57.996Z,97778.38
2023-01-09T06:25:59.649Z,97779.34
2023-01-09T06:27:01.149Z,97782.78
2023-01-09T06:28:02.981Z,97779.34
2023-01-09T06:29:05.162Z,97778.09
2023-01-09T06:30:07.952Z,97778.22
2023-01-09T06:31:09.480Z,97779.06
2023-01-09T06:32:11.469Z,97776.75
2023-01-09T06:33:13.468Z,97779.91
2023-01-09T06:34:15.119Z,97772.88
2023-01-09T06:35:17.189Z,97774.53
2023-01-09T06:36:20.912Z,97771.81
2023-01-09T06:37:24.056Z,97772.34
2023-01-09T06:38:25.904Z,97773.28
2023-01-09T06:39:27.701Z,97773.16
2023-01-09T06:40:29.306Z,97769.03
2023-01-09T06:41:31.286Z,97774.25
2023-01-09T06:42:33.037Z,97781.69
2023-01-09T06:43:34.875Z,97773.00
2023-01-09T06:44:36.468Z,97780.59
2023-01-09T06:45:38.073Z,97775.09
2023-01-09T06:46:39.705Z,97783.19
2023-01-09T06:47:41.340Z,97773.72
2023-01-09T06:48:43.037Z,97774.81
2023-01-09T06:49:44.587Z,97777.97
2023-01-09T06:50:48.889Z,97780.31
2023-01-09T06:51:51.441Z,97784.56
2023-01-09T06:52:53.208Z,97782.63
2023-01-09T06:53:55.118Z,97783.84
2023-01-09T06:54:57.516Z,97782.63
2023-01-09T06:55:59.066Z,97786.63
2023-01-09T06:57:01.914Z,97790.47
2023-01-09T06:58:03.782Z,97789.34
2023-01-09T06:59:05.643Z,97784.69
2023-01-09T07:00:08.432Z,97781.94
2023-01-09T07:01:10.136Z,97783.44
2023-01-09T07:02:30.131Z,97790.03
2023-01-09T07:03:33.701Z,97789.75
2023-01-09T07:04:35.932Z,97793.44
2023-01-09T07:05:43.034Z,97790.03
2023-01-09T07:06:48.435Z,97788.94
2023-01-09T07:07:50.453Z,97795.09
2023-01-09T07:08:53.130Z,97782.03
2023-01-09T07:09:55.821Z,97790.28
2023-01-09T07:10:57.452Z,97787.69
2023-01-09T07:11:59.018Z,97783.41
2023-01-09T07:13:01.492Z,97789.63
2023-01-09T07:14:04.111Z,97789.88
2023-01-09T07:15:06.623Z,97792.22
2023-01-09T07:16:08.535Z,97787.53
2023-01-09T07:17:12.946Z,97786.72
2023-01-09T07:18:15.497Z,97783.81
2023-01-09T07:19:17.112Z,97788.91
2023-01-09T07:20:19.124Z,97786.84
2023-01-09T07:21:21.198Z,97790.41
2023-01-09T07:22:23.848Z,97784.22
2023-01-09T07:23:26.525Z,97793.16
2023-01-09T07:24:28.184Z,97787.50
2023-01-09T07:25:29.865Z,97788.19
2023-01-09T07:26:31.483Z,97783.63
2023-01-09T07:27:33.508Z,97784.19
2023-01-09T07:28:36.383Z,97778.81
2023-01-09T07:29:38.058Z,97784.56
2023-01-09T07:30:39.915Z,97787.59
2023-01-09T07:31:41.733Z,97780.81
2023-01-09T07:32:43.412Z,97780.91
2023-01-09T07:33:45.789Z,97781.84
2023-01-09T07:34:48.686Z,97781.09
2023-01-09T07:35:51.523Z,97780.66
2023-01-09T07:36:53.339Z,97772.56
2023-01-09T07:37:55.608Z,97772.25
2023-01-09T07:38:57.308Z,97774.44
2023-01-09T07:39:59.140Z,97768.06
2023-01-09T07:41:00.973Z,97775.78
2023-01-09T07:42:03.703Z,97782.13
2023-01-09T07:43:05.936Z,97775.31
2023-01-09T07:44:09.556Z,97778.22
2023-01-09T07:45:12.412Z,97778.22
2023-01-09T07:46:14.149Z,97768.44
2023-01-09T07:47:16.528Z,97771.19
2023-01-09T07:48:18.505Z,97765.28
2023-01-09T07:49:20.629Z,97767.75
2023-01-09T07:50:23.523Z,97773.78
2023-01-09T07:51:25.070Z,97766.63
2023-01-09T07:52:27.594Z,97773.66
2023-01-09T07:53:30.068Z,97775.97
2023-01-09T07:54:31.703Z,97766.34
2023-01-09T07:55:34.166Z,97778.28
2023-01-09T07:56:37.054Z,97773.06
2023-01-09T07:57:38.723Z,97766.41
2023-01-09T07:58:41.419Z,97772.84
2023-01-09T07:59:43.833Z,97765.31
2023-01-09T08:00:45.620Z,97763.81
2023-01-09T08:01:48.648Z,97768.06
2023-01-09T08:02:53.758Z,97765.75
2023-01-09T08:03:59.157Z,97760.22
2023-01-09T08:05:00.952Z,97764.34
2023-01-09T08:06:02.712Z,97765.84
2023-01-09T08:07:04.245Z,97767.31
2023-01-09T08:08:07.413Z,97769.13
2023-01-09T08:09:09.190Z,97771.75
2023-01-09T08:10:12.018Z,97762.56
2023-01-09T08:11:13.939Z,97760.75
2023-01-09T08:12:15.567Z,97764.56
2023-01-09T08:13:18.517Z,97761.66
2023-01-09T08:14:20.097Z,97773.50
2023-01-09T08:15:22.022Z,97759.56
2023-01-09T08:16:23.796Z,97765.19
2023-01-09T08:17:26.682Z,97772.56
2023-01-09T08:18:29.196Z,97767.19
2023-01-09T08:19:30.845Z,97767.06
2023-01-09T08:20:33.028Z,97764.59
2023-01-09T08:21:34.898Z,97771.16
2023-01-09T08:22:37.807Z,97765.47
2023-01-09T08:23:40.615Z,97763.41
2023-01-09T08:24:42.161Z,97768.50
2023-01-09T08:25:44.195Z,97766.53
2023-01-09T08:26:45.995Z,97757.28
2023-01-09T08:27:48.844Z,97766.75
2023-01-09T08:28:51.720Z,97764.94
2023-01-09T08:29:54.200Z,97755.19
2023-01-09T08:30:55.809Z,97764.00
2023-01-09T08:31:58.578Z,97762.88
2023-01-09T08:33:01.267Z,97754.19
2023-01-09T08:34:04.216Z,97766.31
2023-01-09T08:35:07.411Z,97761.22
2023-01-09T08:36:10.218Z,97755.97
2023-01-09T08:37:12.037Z,97760.09
2023-01-09T08:38:14.224Z,97762.09
2023-01-09T08:39:16.916Z,97761.13
2023-01-09T08:40:18.995Z,97758.00
2023-01-09T08:41:20.689Z,97764.72
2023-01-09T08:42:22.482Z,97758.38
2023-01-09T08:43:24.226Z,97766.75
2023-01-09T08:44:25.935Z,97761.66
2023-01-09T08:45:27.743Z,97762.31
2023-01-09T08:46:29.398Z,97760.53
2023-01-09T08:47:31.085Z,97758.91
2023-01-09T08:48:32.804Z,97761.66
2023-01-09T08:49:39.248Z,97762.50
2023-01-09T08:50:41.052Z,97763.28
2023-01-09T08:51:43.379Z,97769.50
2023-01-09T08:52:44.972Z,97766.75
2023-01-09T08:53:47.467Z,97761.66
2023-01-09T08:54:49.232Z,97770.34
2023-01-09T08:55:50.997Z,97766.75
2023-01-09T08:56:52.832Z,97771.53
2023-01-09T08:57:55.672Z,97766.31
2023-01-09T08:58:58.553Z,97770.69
2023-01-09T09:00:00.684Z,97769.06
2023-01-09T09:01:06.330Z,97772.78
2023-01-09T09:02:08.707Z,97766.75
2023-01-09T09:03:10.515Z,97775.13
2023-01-09T09:04:12.055Z,97769.59
2023-01-09T09:05:14.205Z,97766.97
2023-01-09T09:06:16.899Z,97772.19
2023-01-09T09:07:21.552Z,97769.59
2023-01-09T09:08:23.346Z,97771.22
2023-01-09T09:09:25.638Z,97773.84
2023-01-09T09:10:29.258Z,97770.38
2023-01-09T09:11:30.893Z,97773.69
2023-01-09T09:12:32.646Z,97772.88
2023-01-09T09:13:34.185Z,97772.72
2023-01-09T09:14:36.174Z,97779.75
2023-01-09T09:15:37.717Z,97779.75
2023-01-09T09:16:39.231Z,97776.31
2023-01-09T09:17:40.794Z,97777.31
2023-01-09T09:18:42.674Z,97777.78
2023-01-09T09:19:44.265Z,97782.38
2023-01-09T09:20:46.943Z,97777.78
2023-01-09T09:21:48.591Z,97782.88
2023-01-09T09:22:50.600Z,97777.00
2023-01-09T09:23:52.216Z,97778.31
2023-01-09T09:24:53.884Z,97777.50
2023-01-09T09:25:56.587Z,97768.69
2023-01-09T09:26:59.274Z,97775.38
2023-01-09T09:28:00.909Z,97774.44
2023-01-09T09:29:02.531Z,97773.09
2023-01-09T09:30:04.718Z,97779.16
2023-01-09T09:31:07.735Z,97780.63
2023-01-09T09:32:09.374Z,97778.69
2023-01-09T09:33:11.084Z,97775.09
2023-01-09T09:34:13.034Z,97775.38
2023-01-09T09:35:15.558Z,97778.97
2023-01-09T09:36:17.135Z,97773.75
2023-01-09T09:37:18.758Z,97766.88
2023-01-09T09:38:20.289Z,97771.97
2023-01-09T09:39:21.893Z,97767.25
2023-01-09T09:41:05.134Z,97764.31
2023-01-09T09:42:21.356Z,97769.03
2023-01-09T09:43:47.757Z,97766.94
2023-01-09T09:45:16.694Z,97762.81
2023-01-09T09:46:40.675Z,97756.47
2023-01-09T09:47:54.405Z,97756.59
2023-01-09T09:49:01.183Z,97755.78
2023-01-09T09:50:24.305Z,97756.47
2023-01-09T09:51:41.888Z,97755.16
2023-01-09T09:52:55.915Z,97748.47
2023-01-09T09:54:20.572Z,97755.47
2023-01-09T09:55:29.963Z,97746.66
2023-01-09T09:56:42.241Z,97756.81
2023-01-09T09:57:44.725Z,97745.53
2023-01-09T09:58:58.492Z,97749.94
2023-01-09T10:00:01.414Z,97750.59
2023-01-09T10:01:18.327Z,97747.31
2023-01-09T10:02:28.668Z,97755.16
2023-01-09T10:03:58.932Z,97743.44
2023-01-09T10:05:09.702Z,97744.91
2023-01-09T10:06:29.488Z,97746.72
2023-01-09T10:07:38.895Z,97748.19
2023-01-09T10:08:56.086Z,97751.84
2023-01-09T10:10:02.108Z,97748.88
2023-01-09T10:11:05.399Z,97757.72
2023-01-09T10:12:09.933Z,97752.47
2023-01-09T10:13:16.978Z,97749.00
2023-01-09T10:14:24.243Z,97762.09
2023-01-09T10:15:45.081Z,97749.84
2023-01-09T10:17:02.181Z,97753.28
2023-01-09T10:18:25.485Z,97754.25
2023-01-09T10:19:37.234Z,97753.94
2023-01-09T10:20:47.231Z,97748.56
2023-01-09T10:22:04.355Z,97758.88
2023-01-09T10:23:06.831Z,97750.06
2023-01-09T10:24:33.903Z,97754.97
2023-01-09T10:25:38.494Z,97759.22
2023-01-09T10:26:48.560Z,97759.22
2023-01-09T10:28:11.843Z,97752.19
2023-01-09T10:29:35.553Z,97756.63
2023-01-09T10:30:59.427Z,97754.50
2023-01-09T10:32:24.358Z,97766.63
2023-01-09T10:33:41.057Z,97767.44
2023-01-09T10:35:01.607Z,97760.88
2023-01-09T10:36:26.017Z,97753.69
2023-01-09T10:37:40.455Z,97752.88
2023-01-09T10:38:47.650Z,97751.56
2023-01-09T10:39:59.364Z,97754.06
2023-01-09T10:41:04.558Z,97748.81
2023-01-09T10:42:35.808Z,97748.50
2023-01-09T10:43:53.093Z,97752.91
2023-01-09T10:45:02.231Z,97747.00
2023-01-09T10:46:13.376Z,97747.00
2023-01-09T10:47:25.571Z,97749.28
2023-01-09T10:48:37.891Z,97748.31
2023-01-09T10:49:40.460Z,97743.25
2023-01-09T10:50:45.729Z,97745.41
2023-01-09T10:51:49.295Z,97746.53
2023-01-09T10:52:53.692Z,97746.22
2023-01-09T10:53:56.686Z,97748.41
2023-01-09T10:55:06.179Z,97743.00
2023-01-09T10:56:22.083Z,97741.19
2023-01-09T10:57:41.708Z,97738.28
2023-01-09T10:58:44.248Z,97728.75
2023-01-09T10:59:45.818Z,97736.16
2023-01-09T11:00:49.841Z,97732.72
2023-01-09T11:01:52.220Z,97739.28
2023-01-09T11:02:55.362Z,97736.19
2023-01-09T11:03:57.318Z,97735.06
2023-01-09T11:04:59.424Z,97728.84
2023-01-09T11:06:03.069Z,97730.47
2023-01-09T11:07:19.163Z,97735.06
2023-01-09T11:08:39.404Z,97735.59
2023-01-09T11:09:59.679Z,97735.94
2023-01-09T11:11:02.524Z,97731.22
2023-01-09T11:12:24.419Z,97729.91
2023-01-09T11:13:32.244Z,97734.19
2023-01-09T11:14:33.786Z,97729.59
2023-01-09T11:15:35.547Z,97734.19
2023-01-09T11:16:37.156Z,97733.03
2023-01-09T11:17:38.972Z,97742.38
2023-01-09T11:18:52.263Z,97740.75
2023-01-09T11:20:15.560Z,97739.13
2023-01-09T11:21:26.331Z,97745.66
2023-01-09T11:22:27.973Z,97739.75
2023-01-09T11:23:33.758Z,97738.13
2023-01-09T11:24:36.183Z,97737.78
2023-01-09T11:25:52.727Z,97740.28
2023-01-09T11:27:17.126Z,97731.75
2023-01-09T11:28:19.431Z,97735.50
2023-01-09T11:29:24.329Z,97732.88
2023-01-09T11:30:26.983Z,97734.38
2023-01-09T11:31:28.645Z,97729.13
2023-01-09T11:32:32.267Z,97726.78
2023-01-09T11:33:46.887Z,97730.25
2023-01-09T11:34:48.804Z,97726.50
2023-01-09T11:36:11.557Z,97733.88
2023-01-09T11:37:26.032Z,97730.88
2023-01-09T11:38:28.907Z,97736.81
2023-01-09T11:39:33.437Z,97726.47
2023-01-09T11:40:50.039Z,97733.97
2023-01-09T11:42:00.699Z,97724.97
2023-01-09T11:43:14.452Z,97731.88
2023-01-09T11:44:16.360Z,97729.09
2023-01-09T11:45:19.258Z,97727.78
2023-01-09T11:46:43.650Z,97734.31
2023-01-09T11:47:46.480Z,97726.28
2023-01-09T11:48:57.677Z,97724.19
2023-01-09T11:50:29.462Z,97733.50
2023-01-09T11:51:36.469Z,97728.25
2023-01-09T11:52:39.147Z,97733.66
2023-01-09T11:54:07.072Z,97733.13
2023-01-09T11:55:14.469Z,97741.84
2023-01-09T11:56:17.417Z,97742.31
2023-01-09T11:57:21.785Z,97735.25
2023-01-09T11:58:23.673Z,97733.47
2023-01-09T11:59:29.472Z,97736.56
2023-01-09T12:00:42.027Z,97733.44
2023-01-09T12:01:53.603Z,97734.41
2023-01-09T12:03:26.358Z,97735.91
2023-01-09T12:04:34.165Z,97736.22
2023-01-09T12:06:03.807Z,97741.47
2023-01-09T12:07:14.493Z,97739.84
2023-01-09T12:08:17.335Z,97740.63
2023-01-09T12:09:28.720Z,97737.88
2023-01-09T12:10:49.765Z,97741.28
2023-01-09T12:12:02.158Z,97744.44
2023-01-09T12:13:22.324Z,97739.84
2023-01-09T12:14:40.983Z,97744.59
2023-01-09T12:16:13.239Z,97746.72
2023-01-09T12:17:53.368Z,97741.28
2023-01-09T12:19:11.052Z,97746.81
2023-01-09T12:20:30.909Z,97751.25
2023-01-09T12:22:02.017Z,97750.13
2023-01-09T12:23:09.358Z,97751.59
2023-01-09T12:24:24.284Z,97751.06
2023-01-09T12:25:25.824Z,97749.06
2023-01-09T12:26:54.800Z,97754.06
2023-01-09T12:28:18.064Z,97748.84
2023-01-09T12:29:30.792Z,97753.28
2023-01-09T12:30:50.949Z,97751.91
2023-01-09T12:32:12.562Z,97750.13
2023-01-09T12:33:51.584Z,97740.63
2023-01-09T12:35:02.244Z,97748.94
2023-01-09T12:36:42.511Z,97742.72
2023-01-09T12:38:19.430Z,97739.59
2023-01-09T12:39:39.240Z,97742.84
2023-01-09T12:40:52.863Z,97731.00
2023-01-09T12:42:13.552Z,97735.59
2023-01-09T12:43:43.366Z,97737.22
2023-01-09T12:44:59.344Z,97743.63
2023-01-09T12:46:12.057Z,97735.78
2023-01-09T12:47:33.568Z,97738.66
2023-01-09T12:48:46.526Z,97737.03
2023-01-09T12:49:53.958Z,97735.25
2023-01-09T12:51:15.876Z,97739.72
2023-01-09T12:52:36.873Z,97732.69
2023-01-09T12:53:55.842Z,97734.63
2023-01-09T12:55:08.939Z,97736.13
2023-01-09T12:56:18.471Z,97746.28
2023-01-09T12:57:43.720Z,97744.50
2023-01-09T12:58:57.406Z,97742.22
2023-01-09T13:00:05.869Z,97744.16